Terminal Aerodrome Forecast
Issued by NWS

Home | Current Version | Previous Version | Graphics & Text | Print | Product List | Glossary On
Versions: 1 2 3 4 5 6 7 8 9 10 11 12
573
FTUS43 KICT 211139
TAFCNU
TAF
KCNU 211139Z 2112/2212 21007KT P6SM BKN120
     FM211300 27006KT P6SM BKN110
     FM211500 33010KT P6SM BKN110
     FM211700 36015G22KT P6SM SCT100
     FM220100 36011KT P6SM SKC
     FM220400 36007KT P6SM SKC=

USA.gov is the U.S. government's official web portal to all federal, state and local government web resources and services.